sensor_id;sensor_type;location;lat;lon;timestamp;pressure;altitude;pressure_sealevel;temperature;humidity
61474;BME280;53694;49.784;30.150;2023-04-29T00:00:26;99752.20;;;4.87;52.63
61474;BME280;53694;49.784;30.150;2023-04-29T00:01:28;99752.20;;;4.87;52.54
61474;BME280;53694;49.784;30.150;2023-04-29T00:02:29;99746.30;;;4.85;52.37
61474;BME280;53694;49.784;30.150;2023-04-29T00:03:31;99749.02;;;4.85;52.44
61474;BME280;53694;49.784;30.150;2023-04-29T00:04:32;99750.11;;;4.84;52.44
61474;BME280;53694;49.784;30.150;2023-04-29T00:05:34;99755.56;;;4.84;52.72
61474;BME280;53694;49.784;30.150;2023-04-29T00:06:36;99750.45;;;4.83;52.41
61474;BME280;53694;49.784;30.150;2023-04-29T00:07:37;99743.41;;;4.82;52.27
61474;BME280;53694;49.784;30.150;2023-04-29T00:08:39;99750.78;;;4.81;52.50
61474;BME280;53694;49.784;30.150;2023-04-29T00:09:41;99743.41;;;4.82;52.59
61474;BME280;53694;49.784;30.150;2023-04-29T00:10:42;99750.78;;;4.81;52.42
61474;BME280;53694;49.784;30.150;2023-04-29T00:11:44;99749.19;;;4.80;52.31
61474;BME280;53694;49.784;30.150;2023-04-29T00:12:45;99749.19;;;4.80;52.27
61474;BME280;53694;49.784;30.150;2023-04-29T00:13:47;99747.56;;;4.79;52.55
61474;BME280;53694;49.784;30.150;2023-04-29T00:14:48;99746.77;;;4.79;52.61
61474;BME280;53694;49.784;30.150;2023-04-29T00:15:50;99745.97;;;4.78;52.50
61474;BME280;53694;49.784;30.150;2023-04-29T00:16:51;99745.97;;;4.78;52.65
61474;BME280;53694;49.784;30.150;2023-04-29T00:17:53;99751.73;;;4.76;52.77
61474;BME280;53694;49.784;30.150;2023-04-29T00:18:55;99750.11;;;4.75;53.21
61474;BME280;53694;49.784;30.150;2023-04-29T00:19:56;99755.09;;;4.73;53.13
61474;BME280;53694;49.784;30.150;2023-04-29T00:20:58;99748.35;;;4.71;52.85
61474;BME280;53694;49.784;30.150;2023-04-29T00:21:59;99745.16;;;4.69;52.82
61474;BME280;53694;49.784;30.150;2023-04-29T00:23:01;99752.03;;;4.66;52.93
61474;BME280;53694;49.784;30.150;2023-04-29T00:24:03;99750.11;;;4.67;52.68
61474;BME280;53694;49.784;30.150;2023-04-29T00:25:06;99748.52;;;4.66;52.92
61474;BME280;53694;49.784;30.150;2023-04-29T00:26:08;99746.92;;;4.65;53.15
61474;BME280;53694;49.784;30.150;2023-04-29T00:27:10;99746.12;;;4.64;52.96
61474;BME280;53694;49.784;30.150;2023-04-29T00:28:11;99749.14;;;4.63;53.22
61474;BME280;53694;49.784;30.150;2023-04-29T00:29:13;99742.11;;;4.62;52.97
61474;BME280;53694;49.784;30.150;2023-04-29T00:30:15;99743.23;;;4.61;53.02
61474;BME280;53694;49.784;30.150;2023-04-29T00:31:16;99740.52;;;4.61;53.45
61474;BME280;53694;49.784;30.150;2023-04-29T00:32:18;99743.56;;;4.59;53.37
61474;BME280;53694;49.784;30.150;2023-04-29T00:33:19;99740.02;;;4.59;52.99
61474;BME280;53694;49.784;30.150;2023-04-29T00:34:21;99749.30;;;4.58;52.91
61474;BME280;53694;49.784;30.150;2023-04-29T00:35:22;99744.99;;;4.57;52.84
61474;BME280;53694;49.784;30.150;2023-04-29T00:36:24;99746.12;;;4.56;52.84
61474;BME280;53694;49.784;30.150;2023-04-29T00:37:25;99748.84;;;4.56;52.91
61474;BME280;53694;49.784;30.150;2023-04-29T00:38:27;99754.28;;;4.56;52.71
61474;BME280;53694;49.784;30.150;2023-04-29T00:39:29;99755.08;;;4.56;52.68
61474;BME280;53694;49.784;30.150;2023-04-29T00:40:31;99746.12;;;4.56;52.83
61474;BME280;53694;49.784;30.150;2023-04-29T00:41:33;99754.28;;;4.56;52.91
61474;BME280;53694;49.784;30.150;2023-04-29T00:42:35;99747.70;;;4.57;52.90
61474;BME280;53694;49.784;30.150;2023-04-29T00:43:37;99746.12;;;4.56;52.92
61474;BME280;53694;49.784;30.150;2023-04-29T00:44:38;99750.43;;;4.57;53.03
61474;BME280;53694;49.784;30.150;2023-04-29T00:45:40;99754.28;;;4.56;53.29
61474;BME280;53694;49.784;30.150;2023-04-29T00:46:42;99750.27;;;4.53;53.34
61474;BME280;53694;49.784;30.150;2023-04-29T00:47:43;99749.46;;;4.53;53.15
61474;BME280;53694;49.784;30.150;2023-04-29T00:48:45;99752.52;;;4.51;53.50
61474;BME280;53694;49.784;30.150;2023-04-29T00:49:46;99752.81;;;4.49;53.21
61474;BME280;53694;49.784;30.150;2023-04-29T00:50:48;99756.66;;;4.48;53.07
61474;BME280;53694;49.784;30.150;2023-04-29T00:51:50;99746.11;;;4.47;53.22
61474;BME280;53694;49.784;30.150;2023-04-29T00:52:51;99750.75;;;4.46;53.38
61474;BME280;53694;49.784;30.150;2023-04-29T00:53:53;99747.20;;;4.46;53.50
61474;BME280;53694;49.784;30.150;2023-04-29T00:54:55;99742.09;;;4.44;53.34
61474;BME280;53694;49.784;30.150;2023-04-29T00:55:58;99750.58;;;4.43;53.40
61474;BME280;53694;49.784;30.150;2023-04-29T00:57:01;99745.44;;;4.41;53.12
61474;BME280;53694;49.784;30.150;2023-04-29T00:58:02;99745.44;;;4.41;53.15
61474;BME280;53694;49.784;30.150;2023-04-29T00:59:04;99750.88;;;4.41;53.35
61474;BME280;53694;49.784;30.150;2023-04-29T01:00:07;99752.00;;;4.40;53.51
61474;BME280;53694;49.784;30.150;2023-04-29T01:01:09;99750.08;;;4.41;54.21
61474;BME280;53694;49.784;30.150;2023-04-29T01:02:11;99744.64;;;4.41;54.12
61474;BME280;53694;49.784;30.150;2023-04-29T01:03:13;99752.80;;;4.41;53.71
61474;BME280;53694;49.784;30.150;2023-04-29T01:04:15;99749.28;;;4.40;53.91
61474;BME280;53694;49.784;30.150;2023-04-29T01:05:17;99751.20;;;4.40;54.35
61474;BME280;53694;49.784;30.150;2023-04-29T01:10:55;99749.27;;;4.32;53.70
61474;BME280;53694;49.784;30.150;2023-04-29T01:13:42;99749.09;;;4.28;54.02
61474;BME280;53694;49.784;30.150;2023-04-29T01:14:51;99751.34;;;4.26;54.07
61474;BME280;53694;49.784;30.150;2023-04-29T01:17:00;99751.48;;;4.21;54.38
61474;BME280;53694;49.784;30.150;2023-04-29T01:18:09;99751.48;;;4.21;54.48
61474;BME280;53694;49.784;30.150;2023-04-29T01:19:19;99751.78;;;4.19;54.92
61474;BME280;53694;49.784;30.150;2023-04-29T01:20:19;99750.98;;;4.19;54.58
61474;BME280;53694;49.784;30.150;2023-04-29T01:21:23;99758.67;;;4.17;54.55
61474;BME280;53694;49.784;30.150;2023-04-29T01:22:25;99762.48;;;4.16;54.39
61474;BME280;53694;49.784;30.150;2023-04-29T01:23:29;99760.89;;;4.15;54.22
61474;BME280;53694;49.784;30.150;2023-04-29T01:24:31;99755.45;;;4.15;54.50
61474;BME280;53694;49.784;30.150;2023-04-29T01:25:33;99753.53;;;4.15;54.45
61474;BME280;53694;49.784;30.150;2023-04-29T01:26:35;99754.98;;;4.13;54.05
61474;BME280;53694;49.784;30.150;2023-04-29T01:27:41;99759.63;;;4.12;54.86
61474;BME280;53694;49.784;30.150;2023-04-29T01:28:49;99756.91;;;4.12;54.79
61474;BME280;53694;49.784;30.150;2023-04-29T01:29:58;99755.28;;;4.11;54.77
61474;BME280;53694;49.784;30.150;2023-04-29T01:32:16;99750.49;;;4.08;55.05
61474;BME280;53694;49.784;30.150;2023-04-29T01:35:59;99754.78;;;4.00;55.56
61474;BME280;53694;49.784;30.150;2023-04-29T01:37:08;99755.91;;;3.99;55.94
61474;BME280;53694;49.784;30.150;2023-04-29T01:43:27;99763.34;;;3.85;56.06
61474;BME280;53694;49.784;30.150;2023-04-29T01:44:29;99767.17;;;3.84;55.63
61474;BME280;53694;49.784;30.150;2023-04-29T01:45:33;99760.14;;;3.83;55.75
61474;BME280;53694;49.784;30.150;2023-04-29T01:46:37;99764.78;;;3.83;55.61
61474;BME280;53694;49.784;30.150;2023-04-29T01:47:39;99771.02;;;3.83;55.81
61474;BME280;53694;49.784;30.150;2023-04-29T01:48:41;99768.30;;;3.83;56.04
61474;BME280;53694;49.784;30.150;2023-04-29T01:49:42;99770.22;;;3.83;55.82
61474;BME280;53694;49.784;30.150;2023-04-29T01:50:44;99763.48;;;3.80;56.00
61474;BME280;53694;49.784;30.150;2023-04-29T01:51:46;99773.55;;;3.80;56.22
61474;BME280;53694;49.784;30.150;2023-04-29T01:52:47;99772.75;;;3.79;56.01
61474;BME280;53694;49.784;30.150;2023-04-29T01:53:49;99779.30;;;3.78;56.08
61474;BME280;53694;49.784;30.150;2023-04-29T01:54:51;99774.96;;;3.77;56.41
61474;BME280;53694;49.784;30.150;2023-04-29T01:55:52;99779.92;;;3.75;56.54
61474;BME280;53694;49.784;30.150;2023-04-29T01:56:54;99769.05;;;3.75;56.26
61474;BME280;53694;49.784;30.150;2023-04-29T01:57:55;99771.27;;;3.73;56.29
61474;BME280;53694;49.784;30.150;2023-04-29T01:58:57;99775.10;;;3.72;56.28
61474;BME280;53694;49.784;30.150;2023-04-29T01:59:59;99774.30;;;3.71;56.39
61474;BME280;53694;49.784;30.150;2023-04-29T02:01:00;99777.34;;;3.70;56.51
61474;BME280;53694;49.784;30.150;2023-04-29T02:02:02;99779.55;;;3.68;56.48
61474;BME280;53694;49.784;30.150;2023-04-29T02:03:03;99777.16;;;3.66;56.72
61474;BME280;53694;49.784;30.150;2023-04-29T02:04:05;99773.94;;;3.64;57.20
61474;BME280;53694;49.784;30.150;2023-04-29T02:05:07;99775.38;;;3.62;57.04
61474;BME280;53694;49.784;30.150;2023-04-29T02:06:10;99771.36;;;3.59;56.92
61474;BME280;53694;49.784;30.150;2023-04-29T02:07:12;99775.81;;;3.55;57.09
61474;BME280;53694;49.784;30.150;2023-04-29T02:08:13;99776.42;;;3.52;57.08
61474;BME280;53694;49.784;30.150;2023-04-29T02:09:15;99784.09;;;3.50;56.92
61474;BME280;53694;49.784;30.150;2023-04-29T02:10:16;99786.80;;;3.50;56.84
61474;BME280;53694;49.784;30.150;2023-04-29T02:11:18;99781.70;;;3.48;56.93
61474;BME280;53694;49.784;30.150;2023-04-29T02:12:20;99778.98;;;3.48;57.43
61474;BME280;53694;49.784;30.150;2023-04-29T02:13:21;99782.50;;;3.49;57.28
61474;BME280;53694;49.784;30.150;2023-04-29T02:14:23;99785.50;;;3.47;57.83
61474;BME280;53694;49.784;30.150;2023-04-29T02:15:27;99782.78;;;3.47;58.00
61474;BME280;53694;49.784;30.150;2023-04-29T02:16:29;99779.27;;;3.47;57.99
61474;BME280;53694;49.784;30.150;2023-04-29T02:17:32;99776.08;;;3.45;57.71
61474;BME280;53694;49.784;30.150;2023-04-29T02:18:34;99784.52;;;3.43;57.85
61474;BME280;53694;49.784;30.150;2023-04-29T02:19:35;99785.16;;;3.40;57.94
61474;BME280;53694;49.784;30.150;2023-04-29T02:20:37;99787.36;;;3.38;58.11
61474;BME280;53694;49.784;30.150;2023-04-29T02:21:39;99795.51;;;3.38;58.28
61474;BME280;53694;49.784;30.150;2023-04-29T02:22:40;99789.09;;;3.34;58.21
61474;BME280;53694;49.784;30.150;2023-04-29T02:23:42;99801.87;;;3.34;58.07
61474;BME280;53694;49.784;30.150;2023-04-29T02:24:43;99790.21;;;3.33;58.52
61474;BME280;53694;49.784;30.150;2023-04-29T02:25:45;99785.90;;;3.32;58.47
61474;BME280;53694;49.784;30.150;2023-04-29T02:26:46;99791.33;;;3.32;58.41
61474;BME280;53694;49.784;30.150;2023-04-29T02:27:48;99785.39;;;3.30;58.54
61474;BME280;53694;49.784;30.150;2023-04-29T02:28:49;99789.70;;;3.31;58.87
61474;BME280;53694;49.784;30.150;2023-04-29T02:29:51;99789.70;;;3.31;58.80
61474;BME280;53694;49.784;30.150;2023-04-29T02:30:53;99786.19;;;3.31;58.57
61474;BME280;53694;49.784;30.150;2023-04-29T02:31:54;99788.11;;;3.30;58.39
61474;BME280;53694;49.784;30.150;2023-04-29T02:32:56;99781.08;;;3.29;58.51
61474;BME280;53694;49.784;30.150;2023-04-29T02:33:57;99780.28;;;3.29;58.57
61474;BME280;53694;49.784;30.150;2023-04-29T02:34:59;99793.86;;;3.29;58.96
61474;BME280;53694;49.784;30.150;2023-04-29T02:36:00;99792.55;;;3.26;58.95
61474;BME280;53694;49.784;30.150;2023-04-29T02:37:02;99795.90;;;3.23;59.33
61474;BME280;53694;49.784;30.150;2023-04-29T02:38:03;99789.16;;;3.20;59.27
61474;BME280;53694;49.784;30.150;2023-04-29T02:39:05;99796.80;;;3.18;59.30
61474;BME280;53694;49.784;30.150;2023-04-29T02:40:07;99794.40;;;3.17;59.45
61474;BME280;53694;49.784;30.150;2023-04-29T02:41:09;99801.74;;;3.16;59.73
61474;BME280;53694;49.784;30.150;2023-04-29T02:42:10;99795.52;;;3.16;60.20
61474;BME280;53694;49.784;30.150;2023-04-29T02:43:12;99795.33;;;3.12;60.04
61474;BME280;53694;49.784;30.150;2023-04-29T02:44:13;99803.14;;;3.14;60.42
61474;BME280;53694;49.784;30.150;2023-04-29T02:45:15;99798.84;;;3.13;60.11
61474;BME280;53694;49.784;30.150;2023-04-29T02:46:17;99797.23;;;3.12;60.05
61474;BME280;53694;49.784;30.150;2023-04-29T02:47:18;99801.55;;;3.13;59.72
61474;BME280;53694;49.784;30.150;2023-04-29T02:48:20;99798.84;;;3.13;59.54
61474;BME280;53694;49.784;30.150;2023-04-29T02:49:21;99797.43;;;3.15;59.51
61474;BME280;53694;49.784;30.150;2023-04-29T02:50:23;99803.66;;;3.16;59.58
61474;BME280;53694;49.784;30.150;2023-04-29T02:51:24;99807.17;;;3.16;59.76
61474;BME280;53694;49.784;30.150;2023-04-29T02:52:26;99807.97;;;3.17;59.40
61474;BME280;53694;49.784;30.150;2023-04-29T02:53:27;99809.56;;;3.18;59.39
61474;BME280;53694;49.784;30.150;2023-04-29T02:54:29;99804.14;;;3.18;59.42
61474;BME280;53694;49.784;30.150;2023-04-29T02:55:30;99805.77;;;3.19;59.70
61474;BME280;53694;49.784;30.150;2023-04-29T02:56:32;99812.79;;;3.20;59.37
61474;BME280;53694;49.784;30.150;2023-04-29T02:57:33;99807.36;;;3.20;59.05
61474;BME280;53694;49.784;30.150;2023-04-29T02:58:35;99814.39;;;3.21;58.96
61474;BME280;53694;49.784;30.150;2023-04-29T02:59:37;99821.41;;;3.22;59.28
61474;BME280;53694;49.784;30.150;2023-04-29T03:00:40;99817.90;;;3.21;59.30
61474;BME280;53694;49.784;30.150;2023-04-29T03:01:41;99819.81;;;3.21;59.44
61474;BME280;53694;49.784;30.150;2023-04-29T03:02:43;99822.84;;;3.19;59.24
61474;BME280;53694;49.784;30.150;2023-04-29T03:03:44;99816.63;;;3.19;59.14
61474;BME280;53694;49.784;30.150;2023-04-29T03:04:46;99821.22;;;3.18;59.18
61474;BME280;53694;49.784;30.150;2023-04-29T03:05:48;99830.19;;;3.19;59.33
61474;BME280;53694;49.784;30.150;2023-04-29T03:06:49;99831.27;;;3.18;59.54
61474;BME280;53694;49.784;30.150;2023-04-29T03:07:51;99829.68;;;3.17;59.75
61474;BME280;53694;49.784;30.150;2023-04-29T03:08:53;99828.88;;;3.16;59.59
61474;BME280;53694;49.784;30.150;2023-04-29T03:09:54;99837.02;;;3.16;59.68
61474;BME280;53694;49.784;30.150;2023-04-29T03:10:56;99830.80;;;3.16;59.68
61474;BME280;53694;49.784;30.150;2023-04-29T03:11:57;99825.37;;;3.16;59.79
61474;BME280;53694;49.784;30.150;2023-04-29T03:12:59;99836.22;;;3.16;59.84
61474;BME280;53694;49.784;30.150;2023-04-29T03:14:00;99833.51;;;3.16;59.99
61474;BME280;53694;49.784;30.150;2023-04-29T03:15:02;99836.22;;;3.16;59.89
61474;BME280;53694;49.784;30.150;2023-04-29T03:16:04;99833.00;;;3.14;59.64
61474;BME280;53694;49.784;30.150;2023-04-29T03:17:06;99841.94;;;3.14;59.52
61474;BME280;53694;49.784;30.150;2023-04-29T03:18:07;99836.83;;;3.13;59.41
61474;BME280;53694;49.784;30.150;2023-04-29T03:19:09;99838.42;;;3.14;59.42
61474;BME280;53694;49.784;30.150;2023-04-29T03:20:11;99849.80;;;3.16;59.46
61474;BME280;53694;49.784;30.150;2023-04-29T03:21:13;99843.56;;;3.15;59.65
61474;BME280;53694;49.784;30.150;2023-04-29T03:22:14;99848.20;;;3.15;60.14
61474;BME280;53694;49.784;30.150;2023-04-29T03:23:16;99850.39;;;3.13;60.34
61474;BME280;53694;49.784;30.150;2023-04-29T03:24:17;99841.77;;;3.11;60.44
61474;BME280;53694;49.784;30.150;2023-04-29T03:25:19;99845.57;;;3.10;60.31
61474;BME280;53694;49.784;30.150;2023-04-29T03:26:20;99847.20;;;3.11;60.30
61474;BME280;53694;49.784;30.150;2023-04-29T03:27:22;99854.55;;;3.10;60.66
61474;BME280;53694;49.784;30.150;2023-04-29T03:28:23;99849.91;;;3.11;60.78
61474;BME280;53694;49.784;30.150;2023-04-29T03:29:25;99850.20;;;3.09;60.69
61474;BME280;53694;49.784;30.150;2023-04-29T03:30:26;99847.20;;;3.11;60.69
61474;BME280;53694;49.784;30.150;2023-04-29T03:31:28;99855.02;;;3.12;60.70
61474;BME280;53694;49.784;30.150;2023-04-29T03:32:29;99852.62;;;3.11;61.08
61474;BME280;53694;49.784;30.150;2023-04-29T03:33:31;99855.83;;;3.13;61.13
61474;BME280;53694;49.784;30.150;2023-04-29T03:34:32;99851.52;;;3.12;61.10
61474;BME280;53694;49.784;30.150;2023-04-29T03:35:34;99855.83;;;3.13;61.44
61474;BME280;53694;49.784;30.150;2023-04-29T03:36:36;99859.05;;;3.15;61.59
61474;BME280;53694;49.784;30.150;2023-04-29T03:37:37;99859.05;;;3.15;61.72
61474;BME280;53694;49.784;30.150;2023-04-29T03:38:39;99856.82;;;3.17;61.71
61474;BME280;53694;49.784;30.150;2023-04-29T03:39:40;99857.62;;;3.17;61.76
61474;BME280;53694;49.784;30.150;2023-04-29T03:40:42;99862.25;;;3.17;62.20
61474;BME280;53694;49.784;30.150;2023-04-29T03:41:49;99857.94;;;3.16;62.16
61474;BME280;53694;49.784;30.150;2023-04-29T03:42:48;99859.85;;;3.15;62.03
61474;BME280;53694;49.784;30.150;2023-04-29T03:43:50;99861.45;;;3.16;62.12
61474;BME280;53694;49.784;30.150;2023-04-29T03:44:51;99867.67;;;3.17;61.79
61474;BME280;53694;49.784;30.150;2023-04-29T03:45:53;99861.92;;;3.18;61.90
61474;BME280;53694;49.784;30.150;2023-04-29T03:46:54;99867.07;;;3.20;61.76
61474;BME280;53694;49.784;30.150;2023-04-29T03:47:56;99866.47;;;3.23;61.79
61474;BME280;53694;49.784;30.150;2023-04-29T03:48:57;99868.06;;;3.24;61.89
61474;BME280;53694;49.784;30.150;2023-04-29T03:49:59;99868.55;;;3.26;61.87
61474;BME280;53694;49.784;30.150;2023-04-29T03:51:01;99873.97;;;3.26;61.71
61474;BME280;53694;49.784;30.150;2023-04-29T03:52:02;99870.14;;;3.27;62.05
61474;BME280;53694;49.784;30.150;2023-04-29T03:53:04;99875.28;;;3.29;61.42
61474;BME280;53694;49.784;30.150;2023-04-29T03:54:05;99867.62;;;3.31;61.29
61474;BME280;53694;49.784;30.150;2023-04-29T03:55:08;99870.05;;;3.32;61.29
61474;BME280;53694;49.784;30.150;2023-04-29T03:56:10;99871.65;;;3.33;61.39
61474;BME280;53694;49.784;30.150;2023-04-29T03:57:12;99873.25;;;3.34;61.26
61474;BME280;53694;49.784;30.150;2023-04-29T03:58:13;99871.05;;;3.36;61.26
61474;BME280;53694;49.784;30.150;2023-04-29T03:59:15;99871.05;;;3.36;61.12
61474;BME280;53694;49.784;30.150;2023-04-29T04:00:17;99871.05;;;3.36;61.07
61474;BME280;53694;49.784;30.150;2023-04-29T04:01:18;99868.02;;;3.38;61.26
61474;BME280;53694;49.784;30.150;2023-04-29T04:02:20;99866.60;;;3.40;61.32
61474;BME280;53694;49.784;30.150;2023-04-29T04:03:22;99870.31;;;3.44;61.21
61474;BME280;53694;49.784;30.150;2023-04-29T04:04:23;99872.39;;;3.47;61.44
61474;BME280;53694;49.784;30.150;2023-04-29T04:05:25;99872.89;;;3.49;61.37
61474;BME280;53694;49.784;30.150;2023-04-29T04:06:27;99875.00;;;3.53;61.28
61474;BME280;53694;49.784;30.150;2023-04-29T04:07:28;99878.20;;;3.55;61.61
61474;BME280;53694;49.784;30.150;2023-04-29T04:08:30;99877.08;;;3.56;61.48
61474;BME280;53694;49.784;30.150;2023-04-29T04:09:31;99875.17;;;3.56;61.24
61474;BME280;53694;49.784;30.150;2023-04-29T04:10:33;99874.56;;;3.59;61.03
61474;BME280;53694;49.784;30.150;2023-04-29T04:11:34;99875.87;;;3.62;61.24
61474;BME280;53694;49.784;30.150;2023-04-29T04:12:36;99874.14;;;3.66;61.19
61474;BME280;53694;49.784;30.150;2023-04-29T04:13:37;99875.73;;;3.67;60.80
61474;BME280;53694;49.784;30.150;2023-04-29T04:14:39;99869.70;;;3.70;60.94
61474;BME280;53694;49.784;30.150;2023-04-29T04:15:40;99881.03;;;3.72;60.70
61474;BME280;53694;49.784;30.150;2023-04-29T04:16:42;99871.77;;;3.73;61.01
61474;BME280;53694;49.784;30.150;2023-04-29T04:17:43;99877.71;;;3.75;61.02
61474;BME280;53694;49.784;30.150;2023-04-29T04:18:45;99869.23;;;3.76;61.01
61474;BME280;53694;49.784;30.150;2023-04-29T04:19:46;99871.67;;;3.78;60.57
61474;BME280;53694;49.784;30.150;2023-04-29T04:20:48;99870.23;;;3.81;60.73
61474;BME280;53694;49.784;30.150;2023-04-29T04:21:49;99878.05;;;3.82;61.00
61474;BME280;53694;49.784;30.150;2023-04-29T04:22:51;99871.21;;;3.85;60.88
61474;BME280;53694;49.784;30.150;2023-04-29T04:23:52;99863.56;;;3.87;60.94
61474;BME280;53694;49.784;30.150;2023-04-29T04:24:54;99869.16;;;3.90;60.85
61474;BME280;53694;49.784;30.150;2023-04-29T04:25:55;99870.78;;;3.91;60.90
61474;BME280;53694;49.784;30.150;2023-04-29T04:26:57;99876.70;;;3.93;61.00
61474;BME280;53694;49.784;30.150;2023-04-29T04:27:59;99880.72;;;3.96;60.71
61474;BME280;53694;49.784;30.150;2023-04-29T04:29:00;99884.23;;;3.96;60.77
61474;BME280;53694;49.784;30.150;2023-04-29T04:30:02;99876.56;;;3.98;60.86
61474;BME280;53694;49.784;30.150;2023-04-29T04:31:04;99879.78;;;4.00;60.80
61474;BME280;53694;49.784;30.150;2023-04-29T04:32:05;99882.98;;;4.03;60.94
61474;BME280;53694;49.784;30.150;2023-04-29T04:33:07;99879.17;;;4.04;61.09
61474;BME280;53694;49.784;30.150;2023-04-29T04:34:08;99880.95;;;4.08;60.85
61474;BME280;53694;49.784;30.150;2023-04-29T04:35:10;99888.45;;;4.11;60.81
61474;BME280;53694;49.784;30.150;2023-04-29T04:36:11;99889.44;;;4.15;60.78
61474;BME280;53694;49.784;30.150;2023-04-29T04:37:13;99881.79;;;4.17;60.74
61474;BME280;53694;49.784;30.150;2023-04-29T04:38:15;99885.78;;;4.20;60.82
61474;BME280;53694;49.784;30.150;2023-04-29T04:39:16;99880.85;;;4.22;60.98
61474;BME280;53694;49.784;30.150;2023-04-29T04:40:18;99884.84;;;4.24;61.03
61474;BME280;53694;49.784;30.150;2023-04-29T04:41:19;99886.47;;;4.25;61.07
61474;BME280;53694;49.784;30.150;2023-04-29T04:42:21;99890.46;;;4.28;61.25
61474;BME280;53694;49.784;30.150;2023-04-29T04:43:23;99889.84;;;4.31;61.20
61474;BME280;53694;49.784;30.150;2023-04-29T04:44:24;99886.51;;;4.34;61.40
61474;BME280;53694;49.784;30.150;2023-04-29T04:45:27;99890.20;;;4.38;61.32
61474;BME280;53694;49.784;30.150;2023-04-29T04:46:29;99884.95;;;4.42;61.14
61474;BME280;53694;49.784;30.150;2023-04-29T04:47:31;99895.97;;;4.45;61.09
61474;BME280;53694;49.784;30.150;2023-04-29T04:48:32;99896.16;;;4.49;61.03
61474;BME280;53694;49.784;30.150;2023-04-29T04:49:34;99892.02;;;4.51;61.21
61474;BME280;53694;49.784;30.150;2023-04-29T04:50:35;99894.11;;;4.55;61.20
61474;BME280;53694;49.784;30.150;2023-04-29T04:51:37;99891.87;;;4.57;61.31
61474;BME280;53694;49.784;30.150;2023-04-29T04:52:38;99893.17;;;4.59;61.46
61474;BME280;53694;49.784;30.150;2023-04-29T04:53:40;99885.16;;;4.63;61.43
61474;BME280;53694;49.784;30.150;2023-04-29T04:54:43;99886.45;;;4.65;61.55
61474;BME280;53694;49.784;30.150;2023-04-29T04:55:45;99890.48;;;4.68;61.50
61474;BME280;53694;49.784;30.150;2023-04-29T04:56:47;99890.62;;;4.71;61.43
61474;BME280;53694;49.784;30.150;2023-04-29T04:57:49;99886.48;;;4.74;61.70
61474;BME280;53694;49.784;30.150;2023-04-29T04:58:51;99886.66;;;4.78;61.42
61474;BME280;53694;49.784;30.150;2023-04-29T04:59:52;99887.45;;;4.78;61.75
61474;BME280;53694;49.784;30.150;2023-04-29T05:00:54;99886.83;;;4.81;61.83
61474;BME280;53694;49.784;30.150;2023-04-29T05:01:55;99885.38;;;4.84;61.45
61474;BME280;53694;49.784;30.150;2023-04-29T05:02:57;99882.36;;;4.85;61.33
61474;BME280;53694;49.784;30.150;2023-04-29T05:03:58;99878.68;;;4.90;61.27
61474;BME280;53694;49.784;30.150;2023-04-29T05:05:00;99884.30;;;4.93;61.29
61474;BME280;53694;49.784;30.150;2023-04-29T05:06:02;99882.55;;;4.97;61.31
61474;BME280;53694;49.784;30.150;2023-04-29T05:07:03;99882.39;;;5.03;61.25
61474;BME280;53694;49.784;30.150;2023-04-29T05:08:05;99881.43;;;5.07;61.06
61474;BME280;53694;49.784;30.150;2023-04-29T05:09:06;99880.47;;;5.12;60.84
61474;BME280;53694;49.784;30.150;2023-04-29T05:10:09;99882.23;;;5.16;60.76
61474;BME280;53694;49.784;30.150;2023-04-29T05:11:17;99890.58;;;5.20;60.75
61474;BME280;53694;49.784;30.150;2023-04-29T05:12:19;99886.09;;;5.24;60.28
61474;BME280;53694;49.784;30.150;2023-04-29T05:13:20;99881.28;;;5.30;60.04
61474;BME280;53694;49.784;30.150;2023-04-29T05:14:22;99886.09;;;5.33;60.33
61474;BME280;53694;49.784;30.150;2023-04-29T05:15:23;99886.27;;;5.36;60.12
61474;BME280;53694;49.784;30.150;2023-04-29T05:16:25;99887.23;;;5.40;60.06
61474;BME280;53694;49.784;30.150;2023-04-29T05:17:27;99883.54;;;5.45;60.00
61474;BME280;53694;49.784;30.150;2023-04-29T05:18:28;99880.65;;;5.50;59.83
61474;BME280;53694;49.784;30.150;2023-04-29T05:19:30;99880.81;;;5.54;59.58
61474;BME280;53694;49.784;30.150;2023-04-29T05:20:31;99888.81;;;5.59;59.56
61474;BME280;53694;49.784;30.150;2023-04-29T05:21:33;99881.94;;;5.61;59.63
61474;BME280;53694;49.784;30.150;2023-04-29T05:22:35;99882.06;;;5.65;59.53
61474;BME280;53694;49.784;30.150;2023-04-29T05:23:36;99877.91;;;5.67;59.48
61474;BME280;53694;49.784;30.150;2023-04-29T05:24:38;99872.95;;;5.69;59.24
61474;BME280;53694;49.784;30.150;2023-04-29T05:25:40;99881.75;;;5.75;59.14
61474;BME280;53694;49.784;30.150;2023-04-29T05:26:42;99877.26;;;5.79;59.11
61474;BME280;53694;49.784;30.150;2023-04-29T05:27:44;99873.56;;;5.84;58.92
61474;BME280;53694;49.784;30.150;2023-04-29T05:28:45;99882.70;;;5.88;58.51
61474;BME280;53694;49.784;30.150;2023-04-29T05:29:47;99881.75;;;5.92;58.41
61474;BME280;53694;49.784;30.150;2023-04-29T05:30:52;99879.64;;;5.98;57.91
61474;BME280;53694;49.784;30.150;2023-04-29T05:31:53;99884.92;;;6.03;57.55
61474;BME280;53694;49.784;30.150;2023-04-29T05:32:55;99883.98;;;6.08;57.18
61474;BME280;53694;49.784;30.150;2023-04-29T05:33:56;99887.31;;;6.13;57.16
61474;BME280;53694;49.784;30.150;2023-04-29T05:34:58;99869.48;;;6.16;56.77
61474;BME280;53694;49.784;30.150;2023-04-29T05:35:59;99876.38;;;6.22;56.53
61474;BME280;53694;49.784;30.150;2023-04-29T05:37:01;99876.99;;;6.28;56.29
61474;BME280;53694;49.784;30.150;2023-04-29T05:38:02;99880.36;;;6.33;56.21
61474;BME280;53694;49.784;30.150;2023-04-29T05:39:04;99879.05;;;6.39;56.35
61474;BME280;53694;49.784;30.150;2023-04-29T05:40:07;99873.89;;;6.46;56.76
61474;BME280;53694;49.784;30.150;2023-04-29T05:41:08;99879.45;;;6.59;55.81
61474;BME280;53694;49.784;30.150;2023-04-29T05:42:10;99879.45;;;6.59;55.81
61474;BME280;53694;49.784;30.150;2023-04-29T05:43:11;99882.79;;;6.64;55.67
61474;BME280;53694;49.784;30.150;2023-04-29T05:44:13;99884.98;;;6.71;55.61